CheckWX is a tool to help pilots better visualize weather data.  It is not intended as a substitute for an official pre-flight weather briefing.

13:56:31 UTC

KSAT METAR
San Antonio International Airport
San Antonio, Texas, USA
Current

1 hour ago

KSAT 261251Z 02007KT 10SM CLR 18/13 A3014 RMK AO2 SLP191 T01830128
Observed
Apr-26 @ 12:51 UTC
Wind
  • 020° at 7 KTS
Visibility
10 SM
Flight Rules
VFR
Cloud Levels
  • Clear skies
Temperature
18°C / 64°F
Dewpoint
13°C / 55°F
Humidity
73%
Altimeter
30.14" Hg
Pressure
1020.62 hPa
Previous

2 hours ago

KSAT 261151Z 02010G17KT 10SM CLR 18/12 A3012 RMK AO2 SLP182 T01780122 10178 20144 53020
Observed
Apr-26 @ 11:51 UTC
Wind
  • 020° at 10 KTS
  • Gusting to 17 KTS
Visibility
10 SM
Flight Rules
VFR
Cloud Levels
  • Clear skies
Temperature
18°C / 64°F
Dewpoint
12°C / 54°F
Humidity
68%
Altimeter
30.12" Hg
Pressure
1020.02 hPa
Previous

3 hours ago

KSAT 261051Z 31006KT 10SM CLR 15/12 A3008 RMK AO2 SLP169 T01500117
Observed
Apr-26 @ 10:51 UTC
Wind
  • 310° at 6 KTS
Visibility
10 SM
Flight Rules
VFR
Cloud Levels
  • Clear skies
Temperature
15°C / 59°F
Dewpoint
12°C / 54°F
Humidity
82%
Altimeter
30.08" Hg
Pressure
1018.62 hPa